createdAt,value
2018-12-11T00:00:41.342Z,0.20
2018-12-11T00:01:42.556Z,0.20
2018-12-11T00:02:43.802Z,0.20
2018-12-11T00:03:45.000Z,0.20
2018-12-11T00:04:46.345Z,0.20
2018-12-11T00:05:47.564Z,0.20
2018-12-11T00:06:49.022Z,0.20
2018-12-11T00:07:50.221Z,0.10
2018-12-11T00:08:51.434Z,0.00
2018-12-11T00:09:53.600Z,0.20
2018-12-11T00:10:54.816Z,0.20
2018-12-11T00:11:56.645Z,0.17
2018-12-11T00:12:57.834Z,0.13
2018-12-11T00:13:59.047Z,0.20
2018-12-11T00:15:01.678Z,0.10
2018-12-11T00:16:03.010Z,0.13
2018-12-11T00:17:04.449Z,0.10
2018-12-11T00:18:05.677Z,0.10
2018-12-11T00:19:06.874Z,0.10
2018-12-11T00:20:08.217Z,0.20
2018-12-11T00:21:09.522Z,0.20
2018-12-11T00:22:11.313Z,0.20
2018-12-11T00:23:12.514Z,0.10
2018-12-11T00:24:14.517Z,0.10
2018-12-11T00:25:15.714Z,0.13
2018-12-11T00:26:17.846Z,0.20
2018-12-11T00:27:19.603Z,0.17
2018-12-11T00:28:21.814Z,0.20
2018-12-11T00:29:23.021Z,0.10
2018-12-11T00:30:24.241Z,0.10
2018-12-11T00:31:25.930Z,0.10
2018-12-11T00:32:28.067Z,0.10
2018-12-11T00:33:29.283Z,0.20
2018-12-11T00:34:30.740Z,0.20
2018-12-11T00:35:32.194Z,0.10
2018-12-11T00:36:34.190Z,0.10
2018-12-11T00:37:36.321Z,0.10
2018-12-11T00:38:37.515Z,0.20
2018-12-11T00:39:39.725Z,0.20
2018-12-11T00:40:40.949Z,0.10
2018-12-11T00:41:42.715Z,0.10
2018-12-11T00:42:44.126Z,0.10
2018-12-11T00:43:45.346Z,0.10
2018-12-11T00:44:46.587Z,0.20
2018-12-11T00:45:47.805Z,0.10
2018-12-11T00:46:48.997Z,0.20
2018-12-11T00:47:50.196Z,0.10
2018-12-11T00:48:52.087Z,0.10
2018-12-11T00:49:53.843Z,0.10
2018-12-11T00:50:55.707Z,0.20
2018-12-11T00:51:57.059Z,0.10
2018-12-11T00:52:58.274Z,0.10
2018-12-11T00:53:59.470Z,0.10
2018-12-11T00:55:00.665Z,0.10
2018-12-11T00:56:02.374Z,0.20
2018-12-11T00:57:03.586Z,0.20
2018-12-11T00:58:05.714Z,0.20
2018-12-11T00:59:06.922Z,0.10
2018-12-11T01:00:08.385Z,0.10
2018-12-11T01:01:09.679Z,0.10
2018-12-11T01:02:10.902Z,0.20
2018-12-11T01:03:12.090Z,0.20
2018-12-11T01:04:13.317Z,0.10
2018-12-11T01:05:15.530Z,0.17
2018-12-11T01:06:16.760Z,0.10
2018-12-11T01:07:18.874Z,0.10
2018-12-11T01:08:20.052Z,0.10
2018-12-11T01:09:22.250Z,0.10
2018-12-11T01:10:23.434Z,0.10
2018-12-11T01:11:25.614Z,0.13
2018-12-11T01:12:28.098Z,0.10
2018-12-11T01:13:29.329Z,0.10
2018-12-11T01:14:30.659Z,0.10
2018-12-11T01:15:32.794Z,0.10
2018-12-11T01:16:34.240Z,0.10
2018-12-11T01:17:35.746Z,0.10
2018-12-11T01:18:38.810Z,0.10
2018-12-11T01:19:40.026Z,0.10
2018-12-11T01:20:41.266Z,0.10
2018-12-11T01:21:42.442Z,0.10
2018-12-11T01:22:43.632Z,0.10
2018-12-11T01:23:44.855Z,0.10
2018-12-11T01:24:47.026Z,0.10
2018-12-11T01:25:48.217Z,0.10
2018-12-11T01:26:49.417Z,0.20
2018-12-11T01:27:50.600Z,0.10
2018-12-11T01:28:52.674Z,0.10
2018-12-11T01:29:53.870Z,0.20
2018-12-11T01:30:55.071Z,0.10
2018-12-11T01:31:56.249Z,0.20
2018-12-11T01:32:57.432Z,0.20
2018-12-11T01:33:58.944Z,0.10
2018-12-11T01:35:01.154Z,0.03
2018-12-11T01:36:03.349Z,0.10
2018-12-11T01:37:04.560Z,0.10
2018-12-11T01:38:06.554Z,0.10
2018-12-11T01:39:09.011Z,0.10
2018-12-11T01:40:10.219Z,0.10
2018-12-11T01:41:12.240Z,0.10
2018-12-11T01:42:13.485Z,0.10
2018-12-11T01:43:14.635Z,0.10
2018-12-11T01:44:15.829Z,0.20
2018-12-11T01:45:17.019Z,0.10
2018-12-11T01:46:18.228Z,0.17
2018-12-11T01:47:20.365Z,0.10
2018-12-11T01:48:22.655Z,0.10
2018-12-11T01:49:23.893Z,0.10
2018-12-11T01:50:26.608Z,0.10
2018-12-11T01:51:27.849Z,0.00
2018-12-11T01:52:29.055Z,0.10
2018-12-11T01:53:30.297Z,0.10
2018-12-11T01:54:31.544Z,0.10
2018-12-11T01:55:32.733Z,0.10
2018-12-11T01:56:33.884Z,0.10
2018-12-11T01:57:35.970Z,0.10
2018-12-11T01:58:37.213Z,0.10
2018-12-11T01:59:38.972Z,0.10
2018-12-11T02:00:40.955Z,0.10
2018-12-11T02:01:42.517Z,0.10
2018-12-11T02:02:44.612Z,0.10
2018-12-11T02:03:45.817Z,0.10
2018-12-11T02:04:47.971Z,0.00
2018-12-11T02:05:50.151Z,0.10
2018-12-11T02:06:51.395Z,0.10
2018-12-11T02:07:52.627Z,0.10
2018-12-11T02:08:53.869Z,0.10
2018-12-11T02:09:55.139Z,0.10
2018-12-11T02:10:58.122Z,0.10
2018-12-11T02:11:59.619Z,0.10
2018-12-11T02:13:00.782Z,0.10
2018-12-11T02:14:01.962Z,0.10
2018-12-11T02:15:04.973Z,0.10
2018-12-11T02:16:06.151Z,0.10
2018-12-11T02:17:07.446Z,0.10
2018-12-11T02:18:08.630Z,0.10
2018-12-11T02:19:09.826Z,0.03
2018-12-11T02:20:11.032Z,0.10
2018-12-11T02:21:12.357Z,0.10
2018-12-11T02:22:13.620Z,0.10
2018-12-11T02:23:14.795Z,0.10
2018-12-11T02:24:16.007Z,0.10
2018-12-11T02:25:17.324Z,0.10
2018-12-11T02:26:18.498Z,0.10
2018-12-11T02:27:19.684Z,0.10
2018-12-11T02:28:20.849Z,0.20
2018-12-11T02:29:22.010Z,0.00
2018-12-11T02:30:23.191Z,0.10
2018-12-11T02:31:24.604Z,0.10
2018-12-11T02:32:25.786Z,0.10
2018-12-11T02:33:26.965Z,0.10
2018-12-11T02:34:28.169Z,0.10
2018-12-11T02:35:29.352Z,0.10
2018-12-11T02:36:30.613Z,0.10
2018-12-11T02:37:31.816Z,0.10
2018-12-11T02:38:33.029Z,0.10
2018-12-11T02:39:34.247Z,0.00
2018-12-11T02:40:35.487Z,0.20
2018-12-11T02:41:36.702Z,0.00
2018-12-11T02:42:38.002Z,0.10
2018-12-11T02:43:39.181Z,0.10
2018-12-11T02:44:40.398Z,0.20
2018-12-11T02:45:41.599Z,0.10
2018-12-11T02:46:42.780Z,0.10
2018-12-11T02:47:43.943Z,0.10
2018-12-11T02:48:45.110Z,0.10
2018-12-11T02:49:46.303Z,0.10
2018-12-11T02:50:47.513Z,0.17
2018-12-11T02:51:48.685Z,0.10
2018-12-11T02:52:49.866Z,0.10
2018-12-11T02:53:51.031Z,0.10
2018-12-11T02:54:52.232Z,0.10
2018-12-11T02:55:53.434Z,0.10
2018-12-11T02:56:54.623Z,0.10
2018-12-11T02:57:55.800Z,0.10
2018-12-11T02:58:56.959Z,0.10
2018-12-11T02:59:58.166Z,0.20
2018-12-11T03:00:59.345Z,0.10
2018-12-11T03:02:00.519Z,0.10
2018-12-11T03:03:01.685Z,0.10
2018-12-11T03:04:02.931Z,0.10
2018-12-11T03:05:04.457Z,0.10
2018-12-11T03:06:05.634Z,0.10
2018-12-11T03:07:06.837Z,0.00
2018-12-11T03:08:08.011Z,0.10
2018-12-11T03:09:09.172Z,0.10
2018-12-11T03:10:10.386Z,0.00
2018-12-11T03:11:11.577Z,0.10
2018-12-11T03:12:12.758Z,0.10
2018-12-11T03:13:13.923Z,0.10
2018-12-11T03:14:15.105Z,0.10
2018-12-11T03:15:16.298Z,0.10
2018-12-11T03:16:17.491Z,0.10
2018-12-11T03:17:18.722Z,0.10
2018-12-11T03:18:19.906Z,0.10
2018-12-11T03:19:21.109Z,0.10
2018-12-11T03:20:22.271Z,0.10
2018-12-11T03:21:23.429Z,0.10
2018-12-11T03:22:24.605Z,0.10
2018-12-11T03:23:25.792Z,0.10
2018-12-11T03:24:26.950Z,0.10
2018-12-11T03:25:28.138Z,0.10
2018-12-11T03:26:29.333Z,0.00
2018-12-11T03:27:30.540Z,0.10
2018-12-11T03:28:31.966Z,0.10
2018-12-11T03:29:33.186Z,0.20
2018-12-11T03:30:34.381Z,0.10
2018-12-11T03:31:35.573Z,0.10
2018-12-11T03:32:36.789Z,0.20
2018-12-11T03:33:37.946Z,0.10
2018-12-11T03:34:39.090Z,0.17
2018-12-11T03:35:40.231Z,0.00
2018-12-11T03:36:41.427Z,0.10
2018-12-11T03:37:42.750Z,0.10
2018-12-11T03:38:43.905Z,0.10
2018-12-11T03:39:45.066Z,0.10
2018-12-11T03:40:46.263Z,0.10
2018-12-11T03:41:47.458Z,0.10
2018-12-11T03:42:48.658Z,0.10
2018-12-11T03:43:49.835Z,0.10
2018-12-11T03:44:51.050Z,0.10
2018-12-11T03:45:52.243Z,0.10
2018-12-11T03:46:53.440Z,0.00
2018-12-11T03:47:54.635Z,0.20
2018-12-11T03:48:55.842Z,0.00
2018-12-11T03:49:57.027Z,0.10
2018-12-11T03:50:58.196Z,0.00
2018-12-11T03:51:59.357Z,0.10
2018-12-11T03:53:00.534Z,0.10
2018-12-11T03:54:01.729Z,0.10
2018-12-11T03:55:03.469Z,0.10
2018-12-11T03:56:04.646Z,0.10
2018-12-11T03:57:05.822Z,0.10
2018-12-11T03:58:07.146Z,0.10
2018-12-11T03:59:08.358Z,0.00
2018-12-11T04:00:09.895Z,0.10
2018-12-11T04:01:11.095Z,0.10
2018-12-11T04:02:12.296Z,0.10
2018-12-11T04:03:13.531Z,0.10
2018-12-11T04:04:14.705Z,0.13
2018-12-11T04:05:15.883Z,0.10
2018-12-11T04:06:17.073Z,0.20
2018-12-11T04:07:18.303Z,0.10
2018-12-11T04:08:19.483Z,0.10
2018-12-11T04:09:20.683Z,0.10
2018-12-11T04:10:21.829Z,0.10
2018-12-11T04:11:23.011Z,0.10
2018-12-11T04:12:24.337Z,0.10
2018-12-11T04:13:25.489Z,0.10
2018-12-11T04:14:26.710Z,0.10
2018-12-11T04:15:27.894Z,0.10
2018-12-11T04:16:29.103Z,0.10
2018-12-11T04:17:30.308Z,0.10
2018-12-11T04:18:31.542Z,0.20
2018-12-11T04:19:32.736Z,0.10
2018-12-11T04:20:33.916Z,0.10
2018-12-11T04:21:35.093Z,0.20
2018-12-11T04:22:36.282Z,0.10
2018-12-11T04:23:37.494Z,0.10
2018-12-11T04:24:38.683Z,0.10
2018-12-11T04:25:39.873Z,0.20
2018-12-11T04:26:41.066Z,0.10
2018-12-11T04:27:42.230Z,0.10
2018-12-11T04:28:43.470Z,0.10
2018-12-11T04:29:44.650Z,0.10
2018-12-11T04:30:45.834Z,0.10
2018-12-11T04:31:47.031Z,0.10
2018-12-11T04:32:48.245Z,0.20
2018-12-11T04:33:49.435Z,0.10
2018-12-11T04:34:50.591Z,0.10
2018-12-11T04:35:51.736Z,0.17
2018-12-11T04:36:52.916Z,0.10
2018-12-11T04:37:54.081Z,0.10
2018-12-11T04:38:55.256Z,0.10
2018-12-11T04:39:56.432Z,0.10
2018-12-11T04:40:57.622Z,0.10
2018-12-11T04:41:58.798Z,0.10
2018-12-11T04:43:00.003Z,0.20
2018-12-11T04:44:01.203Z,0.10
2018-12-11T04:45:02.719Z,0.10
2018-12-11T04:46:03.902Z,0.10
2018-12-11T04:47:05.077Z,0.10
2018-12-11T04:48:06.246Z,0.10
2018-12-11T04:49:07.411Z,0.10
2018-12-11T04:50:08.662Z,0.10
2018-12-11T04:51:10.001Z,0.10
2018-12-11T04:52:11.168Z,0.10
2018-12-11T04:53:12.348Z,0.20
2018-12-11T04:54:13.501Z,0.17
2018-12-11T04:55:14.687Z,0.10
2018-12-11T04:56:15.891Z,0.00
2018-12-11T04:57:17.403Z,0.10
2018-12-11T04:58:18.582Z,0.10
2018-12-11T04:59:19.755Z,0.10
2018-12-11T05:00:20.937Z,0.10
2018-12-11T05:01:22.126Z,0.20
2018-12-11T05:02:23.283Z,0.13
2018-12-11T05:03:24.601Z,0.10
2018-12-11T05:04:25.809Z,0.10
2018-12-11T05:05:27.022Z,0.00
2018-12-11T05:06:28.335Z,0.03
2018-12-11T05:07:29.486Z,0.17
2018-12-11T05:08:30.657Z,0.07
2018-12-11T05:09:31.832Z,0.23
2018-12-11T05:10:33.002Z,0.20
2018-12-11T05:11:34.158Z,0.10
2018-12-11T05:12:35.404Z,0.20
2018-12-11T05:13:36.599Z,0.10
2018-12-11T05:14:37.758Z,0.10
2018-12-11T05:15:38.922Z,0.10
2018-12-11T05:16:40.091Z,0.10
2018-12-11T05:17:41.266Z,0.10
2018-12-11T05:18:42.419Z,0.10
2018-12-11T05:19:43.605Z,0.10
2018-12-11T05:20:44.780Z,0.20
2018-12-11T05:21:45.969Z,0.10
2018-12-11T05:22:47.139Z,0.10
2018-12-11T05:23:48.312Z,0.10
2018-12-11T05:24:49.473Z,0.10
2018-12-11T05:25:50.694Z,0.20
2018-12-11T05:26:51.870Z,0.20
2018-12-11T05:27:53.039Z,0.10
2018-12-11T05:28:54.229Z,0.10
2018-12-11T05:29:55.397Z,0.20
2018-12-11T05:30:57.638Z,0.20
2018-12-11T05:31:58.821Z,0.23
2018-12-11T05:32:59.986Z,0.20
2018-12-11T05:34:01.230Z,0.10
2018-12-11T05:35:02.739Z,0.20
2018-12-11T05:36:03.925Z,0.13
2018-12-11T05:37:06.025Z,0.20
2018-12-11T05:38:07.162Z,0.23
2018-12-11T05:39:08.338Z,0.10
2018-12-11T05:40:09.519Z,0.20
2018-12-11T05:41:10.720Z,0.20
2018-12-11T05:42:11.918Z,0.20
2018-12-11T05:43:13.094Z,0.10
2018-12-11T05:44:14.306Z,0.20
2018-12-11T05:45:15.514Z,0.20
2018-12-11T05:46:16.690Z,0.20
2018-12-11T05:47:17.843Z,0.20
2018-12-11T05:48:19.030Z,0.20
2018-12-11T05:49:20.238Z,0.20
2018-12-11T05:50:21.438Z,0.10
2018-12-11T05:51:22.641Z,0.20
2018-12-11T05:52:23.851Z,0.10
2018-12-11T05:53:25.032Z,0.20
2018-12-11T05:54:26.230Z,0.20
2018-12-11T05:55:27.441Z,0.20
2018-12-11T05:56:28.609Z,0.10
2018-12-11T05:57:29.779Z,0.30
2018-12-11T05:58:30.951Z,0.20
2018-12-11T05:59:32.136Z,0.13
2018-12-11T06:00:33.313Z,0.30
2018-12-11T06:01:34.515Z,0.20
2018-12-11T06:02:35.717Z,0.10
2018-12-11T06:03:36.908Z,0.17
2018-12-11T06:04:38.102Z,0.13
2018-12-11T06:05:39.290Z,0.20
2018-12-11T06:06:40.490Z,0.17
2018-12-11T06:07:41.680Z,0.17
2018-12-11T06:08:42.874Z,0.10
2018-12-11T06:09:44.090Z,0.20
2018-12-11T06:10:45.283Z,0.20
2018-12-11T06:11:46.470Z,0.20
2018-12-11T06:12:47.682Z,0.20
2018-12-11T06:13:48.844Z,0.20
2018-12-11T06:14:50.035Z,0.20
2018-12-11T06:15:51.231Z,0.20
2018-12-11T06:16:52.389Z,0.20
2018-12-11T06:17:53.552Z,0.10
2018-12-11T06:18:54.760Z,0.20
2018-12-11T06:19:55.918Z,0.10
2018-12-11T06:20:57.086Z,0.20
2018-12-11T06:21:58.273Z,0.20
2018-12-11T06:22:59.452Z,0.13
2018-12-11T06:24:00.655Z,0.20
2018-12-11T06:25:02.101Z,0.20
2018-12-11T06:26:03.576Z,0.20
2018-12-11T06:27:04.722Z,0.20
2018-12-11T06:28:05.856Z,0.20
2018-12-11T06:29:07.006Z,0.30
2018-12-11T06:30:08.826Z,0.10
2018-12-11T06:31:10.021Z,0.20
2018-12-11T06:32:11.255Z,0.03
2018-12-11T06:33:12.577Z,0.50
2018-12-11T06:34:13.781Z,0.20
2018-12-11T06:35:14.971Z,0.20
2018-12-11T06:38:11.849Z,0.30
2018-12-11T06:39:13.042Z,0.23
2018-12-11T06:40:14.239Z,0.30
2018-12-11T06:43:14.582Z,0.30
2018-12-11T06:44:15.882Z,0.30
2018-12-11T06:45:17.026Z,0.30
2018-12-11T06:46:18.219Z,0.10
2018-12-11T06:47:19.369Z,0.30
2018-12-11T06:48:20.591Z,0.30
2018-12-11T06:49:21.727Z,0.27
2018-12-11T06:50:22.886Z,0.30
2018-12-11T06:51:24.035Z,0.40
2018-12-11T06:52:25.186Z,0.30
2018-12-11T06:53:26.326Z,0.30
2018-12-11T06:54:28.038Z,0.20
2018-12-11T06:55:29.230Z,0.30
2018-12-11T06:56:30.690Z,0.20
2018-12-11T06:57:31.865Z,0.33
2018-12-11T06:58:33.029Z,0.20
2018-12-11T06:59:34.197Z,0.27
2018-12-11T07:00:35.337Z,0.20
2018-12-11T07:01:36.482Z,0.30
2018-12-11T07:02:37.662Z,0.20
2018-12-11T07:03:38.802Z,0.37
2018-12-11T07:04:39.974Z,0.23
2018-12-11T07:05:41.154Z,0.30
2018-12-11T07:06:42.326Z,0.20
2018-12-11T07:07:43.466Z,0.20
2018-12-11T07:08:44.612Z,0.30
2018-12-11T07:09:45.814Z,0.37
2018-12-11T07:10:46.971Z,0.30
2018-12-11T07:11:48.148Z,0.30
2018-12-11T07:12:49.322Z,0.30
2018-12-11T07:13:50.493Z,0.27
2018-12-11T07:14:51.648Z,0.40
2018-12-11T07:15:52.797Z,0.30
2018-12-11T07:16:54.029Z,0.20
2018-12-11T07:17:55.176Z,0.30
2018-12-11T07:18:56.310Z,0.20
2018-12-11T07:19:57.444Z,0.30
2018-12-11T07:20:58.606Z,0.30
2018-12-11T07:21:59.765Z,0.20
2018-12-11T07:23:00.910Z,0.30
2018-12-11T07:24:02.098Z,0.40
2018-12-11T07:25:03.646Z,0.30
2018-12-11T07:26:04.848Z,0.40
2018-12-11T07:27:06.035Z,0.30
2018-12-11T07:28:07.168Z,0.30
2018-12-11T07:29:08.328Z,0.30
2018-12-11T07:30:09.626Z,0.30
2018-12-11T07:31:10.774Z,0.20
2018-12-11T07:32:11.945Z,0.40
2018-12-11T07:33:13.110Z,0.30
2018-12-11T07:34:14.253Z,0.40
2018-12-11T07:35:15.423Z,0.20
2018-12-11T07:36:16.580Z,0.40
2018-12-11T07:37:17.733Z,0.20
2018-12-11T07:38:18.878Z,0.20
2018-12-11T07:39:20.042Z,0.30
2018-12-11T07:40:21.214Z,0.30
2018-12-11T07:41:22.356Z,0.27
2018-12-11T07:42:23.541Z,0.20
2018-12-11T07:43:24.718Z,0.50
2018-12-11T07:44:25.853Z,0.30
2018-12-11T07:45:27.017Z,0.40
2018-12-11T07:46:28.170Z,0.40
2018-12-11T07:47:29.402Z,0.30
2018-12-11T07:48:30.530Z,0.30
2018-12-11T07:49:31.687Z,0.33
2018-12-11T07:50:32.838Z,0.30
2018-12-11T07:51:34.007Z,0.33
2018-12-11T07:52:35.185Z,0.20
2018-12-11T07:53:36.365Z,0.20
2018-12-11T07:54:37.514Z,0.43
2018-12-11T07:55:38.667Z,0.40
2018-12-11T07:56:39.818Z,0.40
2018-12-11T07:57:41.005Z,0.30
2018-12-11T07:58:42.169Z,0.40
2018-12-11T07:59:43.315Z,0.23
2018-12-11T08:00:44.474Z,0.20
2018-12-11T08:01:45.625Z,0.20
2018-12-11T08:02:46.764Z,0.40
2018-12-11T08:03:47.916Z,0.20
2018-12-11T08:04:49.074Z,0.30
2018-12-11T08:05:50.210Z,0.30
2018-12-11T08:06:51.363Z,0.20
2018-12-11T08:07:52.636Z,0.30
2018-12-11T08:08:53.809Z,0.20
2018-12-11T08:09:54.973Z,0.37
2018-12-11T08:10:56.107Z,0.20
2018-12-11T08:11:57.257Z,0.20
2018-12-11T08:12:58.422Z,0.27
2018-12-11T08:13:59.593Z,0.40
2018-12-11T08:15:00.788Z,0.30
2018-12-11T08:16:01.966Z,0.20
2018-12-11T08:17:03.186Z,0.40
2018-12-11T08:18:04.355Z,0.30
2018-12-11T08:19:05.789Z,0.23
2018-12-11T08:20:07.289Z,0.43
2018-12-11T08:21:08.433Z,0.20
2018-12-11T08:22:09.573Z,0.27
2018-12-11T08:23:10.725Z,0.20
2018-12-11T08:24:11.869Z,0.37
2018-12-11T08:25:13.001Z,0.20
2018-12-11T08:26:14.148Z,0.30
2018-12-11T08:27:15.293Z,0.33
2018-12-11T08:28:16.429Z,0.33
2018-12-11T08:29:17.583Z,0.30
2018-12-11T08:30:18.726Z,0.37
2018-12-11T08:31:19.901Z,0.40
2018-12-11T08:32:21.075Z,0.40
2018-12-11T08:33:22.229Z,0.30
2018-12-11T08:34:23.391Z,0.20
2018-12-11T08:35:24.546Z,0.30
2018-12-11T08:36:25.689Z,0.37
2018-12-11T08:37:26.836Z,0.30
2018-12-11T08:38:27.986Z,0.27
2018-12-11T08:39:29.139Z,0.10
2018-12-11T08:40:30.320Z,0.43
2018-12-11T08:41:31.465Z,0.20
2018-12-11T08:42:32.637Z,0.30
2018-12-11T08:43:33.782Z,0.30
2018-12-11T08:44:34.933Z,0.20
2018-12-11T08:45:36.081Z,0.27
2018-12-11T08:46:37.246Z,0.40
2018-12-11T08:47:38.435Z,0.40
2018-12-11T08:48:39.602Z,0.20
2018-12-11T08:50:32.724Z,0.40
2018-12-11T08:51:33.880Z,0.20
2018-12-11T08:52:35.049Z,0.30
2018-12-11T08:53:36.246Z,0.30
2018-12-11T08:54:37.422Z,0.30
2018-12-11T08:55:38.696Z,0.40
2018-12-11T08:56:46.711Z,0.20
2018-12-11T08:57:47.848Z,0.30
2018-12-11T08:58:49.028Z,0.30
2018-12-11T08:59:50.176Z,0.50
2018-12-11T09:00:51.478Z,0.30
2018-12-11T09:01:52.807Z,0.60
2018-12-11T09:02:53.989Z,0.40
2018-12-11T09:03:55.278Z,0.47
2018-12-11T09:04:56.446Z,0.20
2018-12-11T09:05:57.617Z,0.30
2018-12-11T09:06:58.790Z,0.30
2018-12-11T09:07:59.944Z,0.40
2018-12-11T09:10:57.048Z,0.30
2018-12-11T09:11:58.423Z,0.40
2018-12-11T09:12:59.845Z,0.50
2018-12-11T09:14:01.208Z,0.40
2018-12-11T09:15:03.060Z,0.33
2018-12-11T09:16:04.475Z,0.30
2018-12-11T09:17:10.044Z,0.30
2018-12-11T09:18:09.029Z,0.50
2018-12-11T09:19:10.189Z,0.33
2018-12-11T09:20:11.488Z,0.40
2018-12-11T09:21:12.665Z,0.30
2018-12-11T09:22:14.007Z,0.30
2018-12-11T09:23:15.221Z,0.50
2018-12-11T09:24:16.422Z,0.50
2018-12-11T09:25:17.594Z,0.30
2018-12-11T09:26:18.754Z,0.40
2018-12-11T09:27:19.909Z,0.30
2018-12-11T09:28:21.096Z,0.30
2018-12-11T09:29:22.286Z,0.40
2018-12-11T09:30:23.462Z,0.40
2018-12-11T09:31:24.626Z,0.40
2018-12-11T09:32:25.804Z,0.40
2018-12-11T09:33:26.981Z,0.40
2018-12-11T09:34:28.155Z,0.40
2018-12-11T09:35:29.313Z,0.60
2018-12-11T09:36:30.486Z,0.60
2018-12-11T09:37:31.645Z,0.37
2018-12-11T09:38:32.810Z,0.40
2018-12-11T09:39:34.014Z,0.40
2018-12-11T09:40:35.221Z,0.57
2018-12-11T09:41:36.410Z,0.43
2018-12-11T09:42:37.580Z,0.60
2018-12-11T09:43:38.767Z,0.47
2018-12-11T09:44:39.906Z,0.30
2018-12-11T09:45:41.133Z,0.43
2018-12-11T09:46:42.308Z,0.50
2018-12-11T09:47:43.481Z,0.40
2018-12-11T09:48:44.706Z,0.50
2018-12-11T09:49:45.894Z,0.40
2018-12-11T09:50:47.105Z,0.50
2018-12-11T09:51:48.278Z,0.50
2018-12-11T09:52:49.475Z,0.40
2018-12-11T09:53:50.666Z,0.50
2018-12-11T09:54:51.814Z,0.50
2018-12-11T09:55:52.970Z,0.40
2018-12-11T09:56:54.157Z,0.40
2018-12-11T09:57:55.331Z,0.60
2018-12-11T09:58:56.508Z,0.40
2018-12-11T09:59:57.649Z,0.40
2018-12-11T10:00:58.795Z,0.30
2018-12-11T10:01:59.974Z,0.20
2018-12-11T10:03:01.290Z,0.33
2018-12-11T10:04:02.631Z,0.50
2018-12-11T10:05:04.146Z,0.40
2018-12-11T10:06:05.328Z,0.40
2018-12-11T10:07:06.520Z,0.40
2018-12-11T10:08:07.697Z,0.60
2018-12-11T10:09:08.870Z,0.40
2018-12-11T10:10:10.055Z,0.40
2018-12-11T10:11:11.218Z,0.67
2018-12-11T10:12:12.361Z,0.50
2018-12-11T10:13:13.506Z,0.50
2018-12-11T10:14:14.628Z,0.60
2018-12-11T10:15:15.773Z,0.70
2018-12-11T10:16:16.895Z,0.50
2018-12-11T10:17:18.041Z,0.40
2018-12-11T10:18:19.162Z,0.43
2018-12-11T10:19:20.288Z,0.50
2018-12-11T10:20:21.561Z,0.60
2018-12-11T10:21:22.703Z,0.57
2018-12-11T10:22:23.833Z,0.53
2018-12-11T10:23:31.721Z,0.50
2018-12-11T10:24:28.346Z,0.53
2018-12-11T10:25:29.464Z,0.57
2018-12-11T10:26:30.601Z,0.40
2018-12-11T10:27:31.871Z,0.40
2018-12-11T10:28:33.010Z,0.40
2018-12-11T10:29:34.132Z,0.40
2018-12-11T10:30:41.350Z,0.47
2018-12-11T10:31:42.918Z,0.57
2018-12-11T10:32:46.070Z,0.63
2018-12-11T10:33:47.189Z,0.50
2018-12-11T10:34:48.313Z,0.60
2018-12-11T10:35:49.449Z,0.33
2018-12-11T10:36:50.586Z,0.53
2018-12-11T10:37:51.693Z,0.30
2018-12-11T10:38:52.827Z,0.40
2018-12-11T10:39:53.953Z,0.40
2018-12-11T10:40:55.069Z,0.50
2018-12-11T10:41:56.197Z,0.60
2018-12-11T10:42:57.341Z,0.40
2018-12-11T10:43:58.477Z,0.40
2018-12-11T10:44:59.669Z,0.40
2018-12-11T10:46:00.813Z,0.53
2018-12-11T10:47:02.034Z,1.50
2018-12-11T10:48:03.391Z,1.47
2018-12-11T10:49:04.542Z,0.70
2018-12-11T10:50:05.922Z,0.60
2018-12-11T10:51:07.050Z,0.70
2018-12-11T10:52:08.257Z,0.60
2018-12-11T10:53:09.391Z,0.53
2018-12-11T10:54:10.577Z,0.60
2018-12-11T10:55:11.816Z,0.50
2018-12-11T10:56:12.949Z,0.57
2018-12-11T10:57:14.088Z,0.70
2018-12-11T10:58:15.221Z,0.73
2018-12-11T10:59:16.342Z,0.47
2018-12-11T11:00:23.681Z,0.57
2018-12-11T11:01:25.955Z,0.40
2018-12-11T11:02:27.071Z,0.60
2018-12-11T11:03:28.216Z,0.70
2018-12-11T11:04:29.485Z,0.50
2018-12-11T11:05:30.657Z,0.50
2018-12-11T11:06:31.784Z,0.50
2018-12-11T11:07:32.895Z,0.50
2018-12-11T11:08:34.017Z,0.47
2018-12-11T11:09:35.169Z,0.40
2018-12-11T11:10:36.326Z,0.50
2018-12-11T11:11:37.614Z,0.50
2018-12-11T11:12:38.898Z,0.40
2018-12-11T11:13:40.102Z,0.50
2018-12-11T11:14:41.286Z,0.37
2018-12-11T11:15:42.414Z,0.50
2018-12-11T11:16:43.537Z,0.40
2018-12-11T11:17:44.681Z,0.50
2018-12-11T11:18:52.761Z,0.70
2018-12-11T11:19:53.890Z,0.40
2018-12-11T11:20:55.176Z,0.40
2018-12-11T11:21:56.447Z,0.33
2018-12-11T11:22:57.590Z,0.50
2018-12-11T11:23:58.733Z,0.70
2018-12-11T11:24:59.863Z,0.30
2018-12-11T11:26:01.134Z,0.40
2018-12-11T11:27:02.301Z,0.53
2018-12-11T11:28:03.462Z,0.40
2018-12-11T11:29:04.597Z,0.30
2018-12-11T11:30:07.482Z,0.27
2018-12-11T11:31:08.649Z,0.33
2018-12-11T11:32:09.784Z,0.40
2018-12-11T11:33:10.925Z,0.43
2018-12-11T11:34:12.081Z,0.33
2018-12-11T11:35:13.383Z,0.40
2018-12-11T11:36:14.533Z,0.50
2018-12-11T11:37:15.669Z,0.40
2018-12-11T11:38:16.821Z,0.20
2018-12-11T11:39:17.953Z,0.50
2018-12-11T11:40:19.246Z,0.23
2018-12-11T11:41:20.366Z,0.50
2018-12-11T11:42:21.618Z,0.23
2018-12-11T11:43:22.746Z,0.37
2018-12-11T11:44:23.861Z,0.40
2018-12-11T11:45:24.986Z,0.50
2018-12-11T11:46:26.106Z,0.50
2018-12-11T11:47:27.229Z,0.30
2018-12-11T11:48:28.374Z,0.37
2018-12-11T11:49:29.497Z,0.40
2018-12-11T11:50:30.881Z,0.30
2018-12-11T11:51:32.025Z,0.47
2018-12-11T11:52:33.148Z,0.30
2018-12-11T11:53:34.270Z,0.40
2018-12-11T11:54:35.389Z,0.30
2018-12-11T11:55:36.506Z,0.40
2018-12-11T11:56:37.635Z,0.30
2018-12-11T11:57:38.757Z,0.30
2018-12-11T11:59:47.714Z,0.30
2018-12-11T12:00:48.841Z,0.20
2018-12-11T12:01:49.965Z,0.40
2018-12-11T12:02:51.085Z,0.40
2018-12-11T12:03:52.208Z,0.30
2018-12-11T12:04:53.333Z,0.30
2018-12-11T12:05:54.457Z,0.30
2018-12-11T12:06:55.594Z,0.40
2018-12-11T12:07:56.728Z,0.20
2018-12-11T12:08:59.454Z,0.33
2018-12-11T12:10:00.781Z,0.53
2018-12-11T12:11:01.917Z,0.30
2018-12-11T12:12:03.165Z,0.30
2018-12-11T12:13:04.281Z,0.40
2018-12-11T12:14:05.398Z,0.40
2018-12-11T12:15:06.770Z,0.50
2018-12-11T12:16:07.885Z,0.67
2018-12-11T12:17:09.010Z,0.40
2018-12-11T12:18:10.138Z,0.20
2018-12-11T12:19:11.307Z,0.40
2018-12-11T12:20:12.448Z,0.40
2018-12-11T12:21:13.561Z,0.23
2018-12-11T12:22:14.715Z,0.40
2018-12-11T12:23:15.836Z,0.33
2018-12-11T12:24:17.021Z,0.30
2018-12-11T12:25:18.163Z,0.30
2018-12-11T12:26:19.308Z,0.40
2018-12-11T12:27:20.441Z,0.30
2018-12-11T12:28:21.554Z,0.40
2018-12-11T12:29:22.667Z,0.37
2018-12-11T12:30:25.866Z,0.20
2018-12-11T12:31:27.143Z,0.30
2018-12-11T12:32:28.309Z,0.30
2018-12-11T12:33:29.611Z,0.30
2018-12-11T12:34:30.958Z,0.40
2018-12-11T12:35:32.293Z,0.30
2018-12-11T12:36:33.423Z,0.30
2018-12-11T12:37:34.537Z,0.30
2018-12-11T12:38:35.657Z,0.30
2018-12-11T12:39:36.918Z,0.30
2018-12-11T12:40:38.059Z,0.30
2018-12-11T12:41:39.203Z,0.40
2018-12-11T12:42:40.319Z,0.30
2018-12-11T12:43:41.457Z,0.43
2018-12-11T12:44:42.630Z,0.30
2018-12-11T12:45:43.798Z,0.40
2018-12-11T12:46:44.917Z,0.30
2018-12-11T12:47:46.066Z,0.40
2018-12-11T12:48:47.246Z,0.37
2018-12-11T12:49:50.793Z,0.47
2018-12-11T12:50:51.585Z,0.40
2018-12-11T12:51:52.733Z,0.30
2018-12-11T12:52:53.873Z,0.30
2018-12-11T12:53:55.022Z,0.40
2018-12-11T12:54:56.157Z,0.40
2018-12-11T12:55:57.273Z,0.47
2018-12-11T12:56:58.398Z,0.37
2018-12-11T12:57:59.510Z,0.37
2018-12-11T12:59:00.624Z,0.37
2018-12-11T13:00:01.895Z,0.40
2018-12-11T13:01:03.166Z,0.57
2018-12-11T13:02:04.434Z,0.40
2018-12-11T13:03:05.566Z,0.50
2018-12-11T13:04:06.697Z,0.33
2018-12-11T13:05:07.847Z,0.30
2018-12-11T13:06:08.977Z,0.30
2018-12-11T13:07:10.096Z,0.40
2018-12-11T13:08:11.213Z,0.30
2018-12-11T13:09:12.474Z,0.30
2018-12-11T13:10:13.702Z,0.40
2018-12-11T13:11:14.901Z,0.30
2018-12-11T13:12:16.014Z,0.30
2018-12-11T13:13:17.153Z,0.40
2018-12-11T13:14:18.318Z,0.43
2018-12-11T13:15:19.473Z,0.40
2018-12-11T13:16:20.660Z,0.50
2018-12-11T13:17:28.749Z,0.40
2018-12-11T13:18:29.885Z,0.30
2018-12-11T13:19:31.025Z,0.60
2018-12-11T13:20:39.070Z,0.40
2018-12-11T13:21:40.197Z,0.40
2018-12-11T13:22:41.321Z,0.40
2018-12-11T13:23:42.433Z,0.23
2018-12-11T13:24:43.538Z,0.40
2018-12-11T13:25:44.690Z,0.40
2018-12-11T13:26:45.844Z,0.50
2018-12-11T13:27:46.993Z,0.60
2018-12-11T13:28:55.146Z,0.53
2018-12-11T13:29:56.261Z,0.50
2018-12-11T13:30:57.396Z,0.50
2018-12-11T13:31:58.521Z,0.53
2018-12-11T13:32:59.638Z,0.37
2018-12-11T13:34:00.741Z,0.60
2018-12-11T13:35:01.912Z,0.50
2018-12-11T13:36:03.106Z,0.40
2018-12-11T13:37:04.402Z,0.73
2018-12-11T13:38:05.535Z,0.33
2018-12-11T13:39:06.833Z,0.50
2018-12-11T13:40:08.335Z,0.70
2018-12-11T13:41:09.526Z,0.53
2018-12-11T13:42:10.794Z,0.33
2018-12-11T13:43:11.961Z,0.63
2018-12-11T13:44:13.326Z,0.53